sensor_id;sensor_type;location;lat;lon;timestamp;temperature;humidity
18876;DHT22;9570;50.854;13.778;2022-10-04T00:00:41;12.40;99.90
18876;DHT22;9570;50.854;13.778;2022-10-04T00:03:10;12.30;99.90
18876;DHT22;9570;50.854;13.778;2022-10-04T00:05:39;12.30;99.90
18876;DHT22;9570;50.854;13.778;2022-10-04T00:08:44;12.10;99.90
18876;DHT22;9570;50.854;13.778;2022-10-04T00:11:24;12.20;99.90
18876;DHT22;9570;50.854;13.778;2022-10-04T00:13:57;12.10;99.90
18876;DHT22;9570;50.854;13.778;2022-10-04T00:16:29;12.20;99.90
18876;DHT22;9570;50.854;13.778;2022-10-04T00:24:33;12.20;99.90
18876;DHT22;9570;50.854;13.778;2022-10-04T00:27:26;12.30;99.90
18876;DHT22;9570;50.854;13.778;2022-10-04T00:30:23;12.30;99.90
18876;DHT22;9570;50.854;13.778;2022-10-04T00:33:02;12.20;99.90
18876;DHT22;9570;50.854;13.778;2022-10-04T00:40:35;12.10;99.90
18876;DHT22;9570;50.854;13.778;2022-10-04T00:46:03;12.10;99.90
18876;DHT22;9570;50.854;13.778;2022-10-04T00:48:47;12.20;99.90
18876;DHT22;9570;50.854;13.778;2022-10-04T00:54:50;12.30;99.90
18876;DHT22;9570;50.854;13.778;2022-10-04T00:56:56;12.30;99.90
18876;DHT22;9570;50.854;13.778;2022-10-04T01:00:00;12.40;99.90
18876;DHT22;9570;50.854;13.778;2022-10-04T01:02:32;12.40;99.90
18876;DHT22;9570;50.854;13.778;2022-10-04T01:05:15;12.40;99.90
18876;DHT22;9570;50.854;13.778;2022-10-04T01:07:48;12.40;99.90
18876;DHT22;9570;50.854;13.778;2022-10-04T01:10:24;12.30;99.90
18876;DHT22;9570;50.854;13.778;2022-10-04T01:12:56;12.30;99.90
18876;DHT22;9570;50.854;13.778;2022-10-04T01:29:24;12.30;99.90
18876;DHT22;9570;50.854;13.778;2022-10-04T01:31:52;12.30;99.90
18876;DHT22;9570;50.854;13.778;2022-10-04T01:34:21;12.30;99.90
18876;DHT22;9570;50.854;13.778;2022-10-04T01:36:48;12.40;99.90
18876;DHT22;9570;50.854;13.778;2022-10-04T01:39:15;12.30;99.90
18876;DHT22;9570;50.854;13.778;2022-10-04T01:47:25;12.30;99.90
18876;DHT22;9570;50.854;13.778;2022-10-04T01:49:52;12.20;99.90
18876;DHT22;9570;50.854;13.778;2022-10-04T01:52:36;12.20;99.90
18876;DHT22;9570;50.854;13.778;2022-10-04T01:55:13;12.10;99.90
18876;DHT22;9570;50.854;13.778;2022-10-04T01:57:48;12.00;99.90
18876;DHT22;9570;50.854;13.778;2022-10-04T02:00:15;12.00;99.90
18876;DHT22;9570;50.854;13.778;2022-10-04T02:02:59;12.10;99.90
18876;DHT22;9570;50.854;13.778;2022-10-04T02:05:31;12.30;99.90
18876;DHT22;9570;50.854;13.778;2022-10-04T02:08:06;12.30;99.90
18876;DHT22;9570;50.854;13.778;2022-10-04T02:10:33;12.30;99.90
18876;DHT22;9570;50.854;13.778;2022-10-04T02:13:01;12.30;99.90
18876;DHT22;9570;50.854;13.778;2022-10-04T02:15:30;12.40;99.90
18876;DHT22;9570;50.854;13.778;2022-10-04T02:17:56;12.20;99.90
18876;DHT22;9570;50.854;13.778;2022-10-04T02:20:25;12.10;99.90
18876;DHT22;9570;50.854;13.778;2022-10-04T02:22:57;12.10;99.90
18876;DHT22;9570;50.854;13.778;2022-10-04T02:25:29;12.10;99.90
18876;DHT22;9570;50.854;13.778;2022-10-04T02:27:55;12.10;99.90
18876;DHT22;9570;50.854;13.778;2022-10-04T02:30:21;12.00;99.90
18876;DHT22;9570;50.854;13.778;2022-10-04T02:32:47;12.00;99.90
18876;DHT22;9570;50.854;13.778;2022-10-04T02:35:27;12.00;99.90
18876;DHT22;9570;50.854;13.778;2022-10-04T02:40:49;11.90;99.90
18876;DHT22;9570;50.854;13.778;2022-10-04T02:43:22;11.80;99.90
18876;DHT22;9570;50.854;13.778;2022-10-04T02:46:07;11.80;99.90
18876;DHT22;9570;50.854;13.778;2022-10-04T02:48:50;11.80;99.90
18876;DHT22;9570;50.854;13.778;2022-10-04T02:54:21;11.80;99.90
18876;DHT22;9570;50.854;13.778;2022-10-04T02:56:52;11.80;99.90
18876;DHT22;9570;50.854;13.778;2022-10-04T02:59:20;11.80;99.90
18876;DHT22;9570;50.854;13.778;2022-10-04T03:01:58;11.80;99.90
18876;DHT22;9570;50.854;13.778;2022-10-04T03:04:27;11.90;99.90
18876;DHT22;9570;50.854;13.778;2022-10-04T03:06:53;11.90;99.90
18876;DHT22;9570;50.854;13.778;2022-10-04T03:09:21;11.90;99.90
18876;DHT22;9570;50.854;13.778;2022-10-04T03:11:48;11.90;99.90
18876;DHT22;9570;50.854;13.778;2022-10-04T03:14:23;12.00;99.90
18876;DHT22;9570;50.854;13.778;2022-10-04T03:16:51;12.00;99.90
18876;DHT22;9570;50.854;13.778;2022-10-04T03:19:19;11.90;99.90
18876;DHT22;9570;50.854;13.778;2022-10-04T03:21:47;11.90;99.90
18876;DHT22;9570;50.854;13.778;2022-10-04T03:24:18;11.90;99.90
18876;DHT22;9570;50.854;13.778;2022-10-04T03:26:47;12.00;99.90
18876;DHT22;9570;50.854;13.778;2022-10-04T03:29:14;12.00;99.90
18876;DHT22;9570;50.854;13.778;2022-10-04T03:31:45;12.00;99.90
18876;DHT22;9570;50.854;13.778;2022-10-04T03:34:19;12.00;99.90
18876;DHT22;9570;50.854;13.778;2022-10-04T03:36:46;12.00;99.90
18876;DHT22;9570;50.854;13.778;2022-10-04T03:39:25;12.10;99.90
18876;DHT22;9570;50.854;13.778;2022-10-04T03:41:51;12.00;99.90
18876;DHT22;9570;50.854;13.778;2022-10-04T03:44:18;12.00;99.90
18876;DHT22;9570;50.854;13.778;2022-10-04T03:46:44;11.90;99.90
18876;DHT22;9570;50.854;13.778;2022-10-04T03:49:16;11.90;99.90
18876;DHT22;9570;50.854;13.778;2022-10-04T03:51:48;11.90;99.90
18876;DHT22;9570;50.854;13.778;2022-10-04T03:54:17;11.90;99.90
18876;DHT22;9570;50.854;13.778;2022-10-04T03:56:45;12.00;99.90
18876;DHT22;9570;50.854;13.778;2022-10-04T03:59:13;11.90;99.90
18876;DHT22;9570;50.854;13.778;2022-10-04T04:07:43;11.90;99.90
18876;DHT22;9570;50.854;13.778;2022-10-04T04:10:36;12.00;99.90
18876;DHT22;9570;50.854;13.778;2022-10-04T04:15:37;11.90;99.90
18876;DHT22;9570;50.854;13.778;2022-10-04T04:18:13;11.90;99.90
18876;DHT22;9570;50.854;13.778;2022-10-04T04:20:40;11.80;99.90
18876;DHT22;9570;50.854;13.778;2022-10-04T04:25:38;11.80;99.90
18876;DHT22;9570;50.854;13.778;2022-10-04T04:30:48;11.80;99.90
18876;DHT22;9570;50.854;13.778;2022-10-04T04:33:27;11.80;99.90
18876;DHT22;9570;50.854;13.778;2022-10-04T04:35:55;11.90;99.90
18876;DHT22;9570;50.854;13.778;2022-10-04T04:38:23;11.90;99.90
18876;DHT22;9570;50.854;13.778;2022-10-04T04:40:50;11.90;99.90
18876;DHT22;9570;50.854;13.778;2022-10-04T04:43:20;11.90;99.90
18876;DHT22;9570;50.854;13.778;2022-10-04T04:45:49;11.80;99.90
18876;DHT22;9570;50.854;13.778;2022-10-04T04:48:16;11.90;99.90
18876;DHT22;9570;50.854;13.778;2022-10-04T04:50:54;11.80;99.90
18876;DHT22;9570;50.854;13.778;2022-10-04T04:53:26;11.80;99.90
18876;DHT22;9570;50.854;13.778;2022-10-04T04:56:01;11.80;99.90
18876;DHT22;9570;50.854;13.778;2022-10-04T04:58:34;11.70;99.90
18876;DHT22;9570;50.854;13.778;2022-10-04T05:01:23;11.70;99.90
18876;DHT22;9570;50.854;13.778;2022-10-04T05:04:14;11.60;99.90
18876;DHT22;9570;50.854;13.778;2022-10-04T05:06:43;11.60;99.90
18876;DHT22;9570;50.854;13.778;2022-10-04T05:09:23;11.60;99.90
18876;DHT22;9570;50.854;13.778;2022-10-04T05:11:51;11.60;99.90
18876;DHT22;9570;50.854;13.778;2022-10-04T05:14:18;11.60;99.90
18876;DHT22;9570;50.854;13.778;2022-10-04T05:16:45;11.70;99.90
18876;DHT22;9570;50.854;13.778;2022-10-04T05:22:01;11.90;99.90
18876;DHT22;9570;50.854;13.778;2022-10-04T05:24:32;11.90;99.90
18876;DHT22;9570;50.854;13.778;2022-10-04T05:27:04;11.90;99.90
18876;DHT22;9570;50.854;13.778;2022-10-04T05:29:35;11.90;99.90
18876;DHT22;9570;50.854;13.778;2022-10-04T05:32:35;11.90;99.90
18876;DHT22;9570;50.854;13.778;2022-10-04T05:35:14;12.00;99.90
18876;DHT22;9570;50.854;13.778;2022-10-04T05:48:35;11.60;99.90
18876;DHT22;9570;50.854;13.778;2022-10-04T05:51:00;11.60;99.90
18876;DHT22;9570;50.854;13.778;2022-10-04T05:53:34;11.60;99.90
18876;DHT22;9570;50.854;13.778;2022-10-04T06:01:45;11.70;99.90
18876;DHT22;9570;50.854;13.778;2022-10-04T06:07:18;11.80;99.90
18876;DHT22;9570;50.854;13.778;2022-10-04T06:09:59;11.90;99.90
18876;DHT22;9570;50.854;13.778;2022-10-04T06:12:44;11.90;99.90
18876;DHT22;9570;50.854;13.778;2022-10-04T06:23:17;11.90;99.90
18876;DHT22;9570;50.854;13.778;2022-10-04T06:25:59;11.90;99.90
18876;DHT22;9570;50.854;13.778;2022-10-04T06:28:35;12.00;99.90
18876;DHT22;9570;50.854;13.778;2022-10-04T06:34:22;12.00;99.90
18876;DHT22;9570;50.854;13.778;2022-10-04T06:46:30;12.00;99.90
18876;DHT22;9570;50.854;13.778;2022-10-04T06:49:09;12.20;99.90
18876;DHT22;9570;50.854;13.778;2022-10-04T06:51:43;12.30;99.90
18876;DHT22;9570;50.854;13.778;2022-10-04T07:00:30;12.40;99.90
18876;DHT22;9570;50.854;13.778;2022-10-04T07:05:26;12.60;99.90
18876;DHT22;9570;50.854;13.778;2022-10-04T07:08:02;12.70;99.90
18876;DHT22;9570;50.854;13.778;2022-10-04T07:10:38;12.70;99.90
18876;DHT22;9570;50.854;13.778;2022-10-04T07:15:49;12.80;99.90
18876;DHT22;9570;50.854;13.778;2022-10-04T07:18:24;12.80;99.90
18876;DHT22;9570;50.854;13.778;2022-10-04T07:20:59;12.60;99.90
18876;DHT22;9570;50.854;13.778;2022-10-04T07:23:31;12.70;99.90
18876;DHT22;9570;50.854;13.778;2022-10-04T07:26:06;12.70;99.90
18876;DHT22;9570;50.854;13.778;2022-10-04T07:28:41;12.60;99.90
18876;DHT22;9570;50.854;13.778;2022-10-04T07:31:28;12.60;99.90
18876;DHT22;9570;50.854;13.778;2022-10-04T07:34:10;12.60;99.90
18876;DHT22;9570;50.854;13.778;2022-10-04T07:36:57;12.60;99.90
18876;DHT22;9570;50.854;13.778;2022-10-04T07:39:28;12.50;99.90
18876;DHT22;9570;50.854;13.778;2022-10-04T07:41:58;12.60;99.90
18876;DHT22;9570;50.854;13.778;2022-10-04T07:44:35;12.70;99.90
18876;DHT22;9570;50.854;13.778;2022-10-04T07:49:46;12.90;99.90
18876;DHT22;9570;50.854;13.778;2022-10-04T07:58:00;13.00;99.90
18876;DHT22;9570;50.854;13.778;2022-10-04T08:00:32;13.20;99.90
18876;DHT22;9570;50.854;13.778;2022-10-04T08:06:36;13.40;99.90
18876;DHT22;9570;50.854;13.778;2022-10-04T08:09:18;13.40;99.90
18876;DHT22;9570;50.854;13.778;2022-10-04T08:14:52;13.30;99.90
18876;DHT22;9570;50.854;13.778;2022-10-04T08:20:37;13.30;99.90
18876;DHT22;9570;50.854;13.778;2022-10-04T08:28:44;13.60;99.90
18876;DHT22;9570;50.854;13.778;2022-10-04T08:37:52;13.50;99.90
18876;DHT22;9570;50.854;13.778;2022-10-04T08:43:10;13.40;99.90
18876;DHT22;9570;50.854;13.778;2022-10-04T08:45:50;13.40;99.90
18876;DHT22;9570;50.854;13.778;2022-10-04T09:13:26;13.70;99.90
18876;DHT22;9570;50.854;13.778;2022-10-04T09:21:36;14.10;99.90
18876;DHT22;9570;50.854;13.778;2022-10-04T09:26:56;14.10;99.90
18876;DHT22;9570;50.854;13.778;2022-10-04T09:32:31;14.10;99.90
18876;DHT22;9570;50.854;13.778;2022-10-04T09:35:36;14.10;99.90
18876;DHT22;9570;50.854;13.778;2022-10-04T09:40:59;14.10;99.90
18876;DHT22;9570;50.854;13.778;2022-10-04T09:46:28;14.10;99.90
18876;DHT22;9570;50.854;13.778;2022-10-04T10:00:14;14.30;99.90
18876;DHT22;9570;50.854;13.778;2022-10-04T10:03:20;14.30;99.90
18876;DHT22;9570;50.854;13.778;2022-10-04T10:06:01;14.40;99.90
18876;DHT22;9570;50.854;13.778;2022-10-04T10:15:05;14.70;99.90
18876;DHT22;9570;50.854;13.778;2022-10-04T10:17:54;14.80;99.90
18876;DHT22;9570;50.854;13.778;2022-10-04T10:20:48;14.90;99.90
18876;DHT22;9570;50.854;13.778;2022-10-04T10:33:51;15.00;99.90
18876;DHT22;9570;50.854;13.778;2022-10-04T10:36:29;15.00;99.90
18876;DHT22;9570;50.854;13.778;2022-10-04T11:12:22;15.20;99.90
18876;DHT22;9570;50.854;13.778;2022-10-04T11:24:40;15.10;99.90
18876;DHT22;9570;50.854;13.778;2022-10-04T11:34:57;15.30;99.90
18876;DHT22;9570;50.854;13.778;2022-10-04T11:46:16;15.90;99.90
18876;DHT22;9570;50.854;13.778;2022-10-04T11:51:17;16.00;99.90
18876;DHT22;9570;50.854;13.778;2022-10-04T12:00:23;15.80;99.90
18876;DHT22;9570;50.854;13.778;2022-10-04T12:10:40;16.20;99.90
18876;DHT22;9570;50.854;13.778;2022-10-04T12:19:02;16.30;99.90
18876;DHT22;9570;50.854;13.778;2022-10-04T12:21:42;16.30;99.90
18876;DHT22;9570;50.854;13.778;2022-10-04T12:24:45;16.30;99.90
18876;DHT22;9570;50.854;13.778;2022-10-04T12:27:40;16.30;99.90
18876;DHT22;9570;50.854;13.778;2022-10-04T12:30:29;16.20;99.90
18876;DHT22;9570;50.854;13.778;2022-10-04T12:36:00;15.90;99.90
18876;DHT22;9570;50.854;13.778;2022-10-04T12:47:21;16.10;99.90
18876;DHT22;9570;50.854;13.778;2022-10-04T12:50:05;16.10;99.90
18876;DHT22;9570;50.854;13.778;2022-10-04T12:55:54;16.20;99.90
18876;DHT22;9570;50.854;13.778;2022-10-04T12:58:44;16.30;99.90
18876;DHT22;9570;50.854;13.778;2022-10-04T13:04:21;16.30;99.90
18876;DHT22;9570;50.854;13.778;2022-10-04T13:10:25;16.30;99.90
18876;DHT22;9570;50.854;13.778;2022-10-04T13:23:14;16.00;99.90
18876;DHT22;9570;50.854;13.778;2022-10-04T13:28:22;15.90;99.90
18876;DHT22;9570;50.854;13.778;2022-10-04T13:30:52;16.00;99.90
18876;DHT22;9570;50.854;13.778;2022-10-04T13:36:41;15.80;99.90
18876;DHT22;9570;50.854;13.778;2022-10-04T13:39:14;15.70;99.90
18876;DHT22;9570;50.854;13.778;2022-10-04T13:42:01;15.60;99.90
18876;DHT22;9570;50.854;13.778;2022-10-04T13:47:22;15.70;99.90
18876;DHT22;9570;50.854;13.778;2022-10-04T13:49:57;15.80;99.90
18876;DHT22;9570;50.854;13.778;2022-10-04T13:52:43;15.80;99.90
18876;DHT22;9570;50.854;13.778;2022-10-04T13:55:36;15.90;99.90
18876;DHT22;9570;50.854;13.778;2022-10-04T13:58:38;15.90;99.90
18876;DHT22;9570;50.854;13.778;2022-10-04T14:06:58;15.70;99.90
18876;DHT22;9570;50.854;13.778;2022-10-04T14:15:32;15.80;99.90
18876;DHT22;9570;50.854;13.778;2022-10-04T14:21:15;15.90;99.90
18876;DHT22;9570;50.854;13.778;2022-10-04T14:23:54;15.90;99.90
18876;DHT22;9570;50.854;13.778;2022-10-04T14:35:02;15.90;99.90
18876;DHT22;9570;50.854;13.778;2022-10-04T14:46:29;15.70;99.90
18876;DHT22;9570;50.854;13.778;2022-10-04T14:52:15;15.60;99.90
18876;DHT22;9570;50.854;13.778;2022-10-04T14:54:55;15.60;99.90
18876;DHT22;9570;50.854;13.778;2022-10-04T15:00:19;15.60;99.90
18876;DHT22;9570;50.854;13.778;2022-10-04T15:03:10;15.60;99.90
18876;DHT22;9570;50.854;13.778;2022-10-04T15:10:56;15.50;99.90
18876;DHT22;9570;50.854;13.778;2022-10-04T15:13:36;15.40;99.90
18876;DHT22;9570;50.854;13.778;2022-10-04T15:32:35;15.00;99.90
18876;DHT22;9570;50.854;13.778;2022-10-04T15:41:05;14.60;99.90
18876;DHT22;9570;50.854;13.778;2022-10-04T15:49:35;14.40;99.90
18876;DHT22;9570;50.854;13.778;2022-10-04T15:58:15;14.20;99.90
18876;DHT22;9570;50.854;13.778;2022-10-04T16:00:54;14.20;99.90
18876;DHT22;9570;50.854;13.778;2022-10-04T16:06:29;14.10;99.90
18876;DHT22;9570;50.854;13.778;2022-10-04T16:20:15;13.70;99.90
18876;DHT22;9570;50.854;13.778;2022-10-04T16:25:55;13.50;99.90
18876;DHT22;9570;50.854;13.778;2022-10-04T16:31:27;13.30;99.90
18876;DHT22;9570;50.854;13.778;2022-10-04T16:37:14;13.30;99.90
18876;DHT22;9570;50.854;13.778;2022-10-04T16:47:35;12.80;99.90
18876;DHT22;9570;50.854;13.778;2022-10-04T16:50:09;12.80;99.90
18876;DHT22;9570;50.854;13.778;2022-10-04T16:52:43;12.70;99.90
18876;DHT22;9570;50.854;13.778;2022-10-04T16:55:35;12.70;99.90
18876;DHT22;9570;50.854;13.778;2022-10-04T17:04:23;12.50;99.90
18876;DHT22;9570;50.854;13.778;2022-10-04T17:06:54;12.40;99.90
18876;DHT22;9570;50.854;13.778;2022-10-04T17:09:52;12.40;99.90
18876;DHT22;9570;50.854;13.778;2022-10-04T17:26:04;12.10;99.90
18876;DHT22;9570;50.854;13.778;2022-10-04T17:31:55;12.00;99.90
18876;DHT22;9570;50.854;13.778;2022-10-04T17:39:53;11.80;99.90
18876;DHT22;9570;50.854;13.778;2022-10-04T17:45:29;11.80;99.90
18876;DHT22;9570;50.854;13.778;2022-10-04T17:48:25;11.60;99.90
18876;DHT22;9570;50.854;13.778;2022-10-04T17:51:29;11.60;99.90
18876;DHT22;9570;50.854;13.778;2022-10-04T17:54:21;11.50;99.90
18876;DHT22;9570;50.854;13.778;2022-10-04T17:57:12;11.40;99.90
18876;DHT22;9570;50.854;13.778;2022-10-04T17:59:46;11.40;99.90
18876;DHT22;9570;50.854;13.778;2022-10-04T18:02:28;11.30;99.90
18876;DHT22;9570;50.854;13.778;2022-10-04T18:04:59;11.30;99.90
18876;DHT22;9570;50.854;13.778;2022-10-04T18:07:30;11.20;99.90
18876;DHT22;9570;50.854;13.778;2022-10-04T18:10:02;11.20;99.90
18876;DHT22;9570;50.854;13.778;2022-10-04T18:12:39;11.20;99.90
18876;DHT22;9570;50.854;13.778;2022-10-04T18:15:31;11.10;99.90
18876;DHT22;9570;50.854;13.778;2022-10-04T18:18:14;11.10;99.90
18876;DHT22;9570;50.854;13.778;2022-10-04T18:23:25;11.00;99.90
18876;DHT22;9570;50.854;13.778;2022-10-04T18:26:10;11.00;99.90
18876;DHT22;9570;50.854;13.778;2022-10-04T18:28:42;10.90;99.90
18876;DHT22;9570;50.854;13.778;2022-10-04T18:33:54;10.80;99.90
18876;DHT22;9570;50.854;13.778;2022-10-04T18:36:22;10.80;99.90
18876;DHT22;9570;50.854;13.778;2022-10-04T18:39:17;10.80;99.90
18876;DHT22;9570;50.854;13.778;2022-10-04T18:41:44;10.70;99.90
18876;DHT22;9570;50.854;13.778;2022-10-04T18:44:25;10.70;99.90
18876;DHT22;9570;50.854;13.778;2022-10-04T18:46:56;10.60;99.90
18876;DHT22;9570;50.854;13.778;2022-10-04T18:49:27;10.50;99.90
18876;DHT22;9570;50.854;13.778;2022-10-04T18:57:26;10.30;99.90
18876;DHT22;9570;50.854;13.778;2022-10-04T19:00:11;10.30;99.90
18876;DHT22;9570;50.854;13.778;2022-10-04T19:03:22;10.20;99.90
18876;DHT22;9570;50.854;13.778;2022-10-04T19:06:02;10.10;99.90
18876;DHT22;9570;50.854;13.778;2022-10-04T19:21:57;10.00;99.90
18876;DHT22;9570;50.854;13.778;2022-10-04T19:24:35;9.90;99.90
18876;DHT22;9570;50.854;13.778;2022-10-04T19:27:04;9.90;99.90
18876;DHT22;9570;50.854;13.778;2022-10-04T19:29:47;9.90;99.90
18876;DHT22;9570;50.854;13.778;2022-10-04T19:32:47;9.80;99.90
18876;DHT22;9570;50.854;13.778;2022-10-04T19:35:51;9.80;99.90
18876;DHT22;9570;50.854;13.778;2022-10-04T19:38:39;9.70;99.90
18876;DHT22;9570;50.854;13.778;2022-10-04T19:50:19;9.60;99.90
18876;DHT22;9570;50.854;13.778;2022-10-04T19:52:47;9.50;99.90
18876;DHT22;9570;50.854;13.778;2022-10-04T19:58:05;9.40;99.90
18876;DHT22;9570;50.854;13.778;2022-10-04T20:00:33;9.40;99.90
18876;DHT22;9570;50.854;13.778;2022-10-04T20:03:00;9.40;99.90
18876;DHT22;9570;50.854;13.778;2022-10-04T20:05:25;9.40;99.90
18876;DHT22;9570;50.854;13.778;2022-10-04T20:07:56;9.30;99.90
18876;DHT22;9570;50.854;13.778;2022-10-04T20:26:07;9.20;99.90
18876;DHT22;9570;50.854;13.778;2022-10-04T20:31:03;9.10;99.90
18876;DHT22;9570;50.854;13.778;2022-10-04T20:36:12;9.10;99.90
18876;DHT22;9570;50.854;13.778;2022-10-04T20:38:56;9.00;99.90
18876;DHT22;9570;50.854;13.778;2022-10-04T20:43:59;9.00;99.90
18876;DHT22;9570;50.854;13.778;2022-10-04T20:46:29;8.90;99.90
18876;DHT22;9570;50.854;13.778;2022-10-04T20:48:56;8.90;99.90
18876;DHT22;9570;50.854;13.778;2022-10-04T20:51:29;8.90;99.90
18876;DHT22;9570;50.854;13.778;2022-10-04T20:53:58;8.80;99.90
18876;DHT22;9570;50.854;13.778;2022-10-04T20:56:29;8.80;99.90
18876;DHT22;9570;50.854;13.778;2022-10-04T20:58:56;8.80;99.90
18876;DHT22;9570;50.854;13.778;2022-10-04T21:01:31;8.80;99.90
18876;DHT22;9570;50.854;13.778;2022-10-04T21:04:25;8.80;99.90
18876;DHT22;9570;50.854;13.778;2022-10-04T21:07:21;8.80;99.90
18876;DHT22;9570;50.854;13.778;2022-10-04T21:09:48;8.80;99.90
18876;DHT22;9570;50.854;13.778;2022-10-04T21:12:36;8.70;99.90
18876;DHT22;9570;50.854;13.778;2022-10-04T21:15:06;8.70;99.90
18876;DHT22;9570;50.854;13.778;2022-10-04T21:17:42;8.70;99.90
18876;DHT22;9570;50.854;13.778;2022-10-04T21:20:45;8.60;99.90
18876;DHT22;9570;50.854;13.778;2022-10-04T21:26:21;8.60;99.90
18876;DHT22;9570;50.854;13.778;2022-10-04T21:28:51;8.60;99.90
18876;DHT22;9570;50.854;13.778;2022-10-04T21:31:17;8.60;99.90
18876;DHT22;9570;50.854;13.778;2022-10-04T21:33:43;8.50;99.90
18876;DHT22;9570;50.854;13.778;2022-10-04T21:36:08;8.50;99.90
18876;DHT22;9570;50.854;13.778;2022-10-04T21:38:34;8.50;99.90
18876;DHT22;9570;50.854;13.778;2022-10-04T21:41:00;8.50;99.90
18876;DHT22;9570;50.854;13.778;2022-10-04T21:43:26;8.50;99.90
18876;DHT22;9570;50.854;13.778;2022-10-04T21:45:51;8.50;99.90
18876;DHT22;9570;50.854;13.778;2022-10-04T21:48:17;8.50;99.90
18876;DHT22;9570;50.854;13.778;2022-10-04T21:50:46;8.50;99.90
18876;DHT22;9570;50.854;13.778;2022-10-04T21:53:11;8.40;99.90
18876;DHT22;9570;50.854;13.778;2022-10-04T21:55:38;8.40;99.90
18876;DHT22;9570;50.854;13.778;2022-10-04T21:58:03;8.40;99.90
18876;DHT22;9570;50.854;13.778;2022-10-04T22:00:29;8.40;99.90
18876;DHT22;9570;50.854;13.778;2022-10-04T22:02:54;8.40;99.90
18876;DHT22;9570;50.854;13.778;2022-10-04T22:05:20;8.40;99.90
18876;DHT22;9570;50.854;13.778;2022-10-04T22:07:45;8.30;99.90
18876;DHT22;9570;50.854;13.778;2022-10-04T22:10:11;8.30;99.90
18876;DHT22;9570;50.854;13.778;2022-10-04T22:12:36;8.30;99.90
18876;DHT22;9570;50.854;13.778;2022-10-04T22:15:03;8.20;99.90
18876;DHT22;9570;50.854;13.778;2022-10-04T22:17:28;8.20;99.90
18876;DHT22;9570;50.854;13.778;2022-10-04T22:19:54;8.20;99.90
18876;DHT22;9570;50.854;13.778;2022-10-04T22:22:19;8.20;99.90
18876;DHT22;9570;50.854;13.778;2022-10-04T22:24:45;8.20;99.90
18876;DHT22;9570;50.854;13.778;2022-10-04T22:27:15;8.20;99.90
18876;DHT22;9570;50.854;13.778;2022-10-04T22:29:42;8.20;99.90
18876;DHT22;9570;50.854;13.778;2022-10-04T22:32:22;8.10;99.90
18876;DHT22;9570;50.854;13.778;2022-10-04T22:34:52;8.10;99.90
18876;DHT22;9570;50.854;13.778;2022-10-04T22:37:23;8.00;99.90
18876;DHT22;9570;50.854;13.778;2022-10-04T22:39:50;8.10;99.90
18876;DHT22;9570;50.854;13.778;2022-10-04T22:42:17;8.00;99.90
18876;DHT22;9570;50.854;13.778;2022-10-04T22:44:42;8.00;99.90
18876;DHT22;9570;50.854;13.778;2022-10-04T22:47:13;8.00;99.90
18876;DHT22;9570;50.854;13.778;2022-10-04T22:49:42;8.00;99.90
18876;DHT22;9570;50.854;13.778;2022-10-04T22:52:18;8.00;99.90
18876;DHT22;9570;50.854;13.778;2022-10-04T22:54:46;8.00;99.90
18876;DHT22;9570;50.854;13.778;2022-10-04T22:57:14;7.90;99.90
18876;DHT22;9570;50.854;13.778;2022-10-04T22:59:42;8.00;99.90
18876;DHT22;9570;50.854;13.778;2022-10-04T23:02:14;7.90;99.90
18876;DHT22;9570;50.854;13.778;2022-10-04T23:04:44;7.90;99.90
18876;DHT22;9570;50.854;13.778;2022-10-04T23:07:10;7.90;99.90
18876;DHT22;9570;50.854;13.778;2022-10-04T23:09:35;7.90;99.90
18876;DHT22;9570;50.854;13.778;2022-10-04T23:12:01;7.90;99.90
18876;DHT22;9570;50.854;13.778;2022-10-04T23:14:27;7.90;99.90
18876;DHT22;9570;50.854;13.778;2022-10-04T23:16:52;7.90;99.90
18876;DHT22;9570;50.854;13.778;2022-10-04T23:19:18;7.90;99.90
18876;DHT22;9570;50.854;13.778;2022-10-04T23:21:48;7.80;99.90
18876;DHT22;9570;50.854;13.778;2022-10-04T23:24:21;7.80;99.90
18876;DHT22;9570;50.854;13.778;2022-10-04T23:26:52;7.80;99.90
18876;DHT22;9570;50.854;13.778;2022-10-04T23:29:28;7.80;99.90
18876;DHT22;9570;50.854;13.778;2022-10-04T23:31:54;7.80;99.90
18876;DHT22;9570;50.854;13.778;2022-10-04T23:34:34;7.80;99.90
18876;DHT22;9570;50.854;13.778;2022-10-04T23:37:00;7.80;99.90
18876;DHT22;9570;50.854;13.778;2022-10-04T23:39:29;7.80;99.90
18876;DHT22;9570;50.854;13.778;2022-10-04T23:41:55;7.80;99.90
18876;DHT22;9570;50.854;13.778;2022-10-04T23:44:32;7.80;99.90
18876;DHT22;9570;50.854;13.778;2022-10-04T23:46:58;7.80;99.90
18876;DHT22;9570;50.854;13.778;2022-10-04T23:49:23;7.80;99.90
18876;DHT22;9570;50.854;13.778;2022-10-04T23:51:53;7.80;99.90
18876;DHT22;9570;50.854;13.778;2022-10-04T23:54:21;7.80;99.90
18876;DHT22;9570;50.854;13.778;2022-10-04T23:56:47;7.80;99.90
18876;DHT22;9570;50.854;13.778;2022-10-04T23:59:17;7.80;99.90
